createdAt,value
2018-06-23T00:00:47.079Z,17.33
2018-06-23T00:03:15.163Z,26.37
2018-06-23T00:05:43.275Z,18.47
2018-06-23T00:08:11.410Z,15.53
2018-06-23T00:10:39.532Z,14.93
2018-06-23T00:13:07.640Z,24.83
2018-06-23T00:15:35.783Z,21.23
2018-06-23T00:18:03.948Z,16.17
2018-06-23T00:20:32.041Z,10.27
2018-06-23T00:23:00.195Z,22.13
2018-06-23T00:25:33.707Z,20.53
2018-06-23T00:28:01.843Z,18.33
2018-06-23T00:30:29.985Z,15.87
2018-06-23T00:32:58.103Z,19.40
2018-06-23T00:35:26.238Z,18.30
2018-06-23T00:37:54.327Z,24.07
2018-06-23T00:40:22.403Z,12.63
2018-06-23T00:42:50.499Z,20.00
2018-06-23T00:45:18.612Z,17.17
2018-06-23T00:47:46.735Z,16.67
2018-06-23T00:50:14.867Z,19.83
2018-06-23T00:52:43.020Z,16.10
2018-06-23T00:55:11.157Z,12.17
2018-06-23T00:57:39.328Z,17.67
2018-06-23T01:00:07.475Z,11.43
2018-06-23T01:02:35.623Z,25.77
2018-06-23T01:05:03.783Z,24.73
2018-06-23T01:07:31.984Z,13.37
2018-06-23T01:10:00.134Z,20.07
2018-06-23T01:12:28.403Z,14.37
2018-06-23T01:14:56.531Z,20.80
2018-06-23T01:17:24.666Z,15.67
2018-06-23T01:19:52.579Z,14.30
2018-06-23T01:22:20.753Z,12.10
2018-06-23T01:24:48.876Z,18.53
2018-06-23T01:27:17.024Z,16.20
2018-06-23T01:29:45.146Z,15.80
2018-06-23T01:32:13.311Z,15.33
2018-06-23T01:34:41.472Z,16.53
2018-06-23T01:37:09.638Z,20.70
2018-06-23T01:39:37.799Z,15.77
2018-06-23T01:42:06.157Z,17.87
2018-06-23T01:44:34.358Z,19.57
2018-06-23T01:47:02.524Z,15.23
2018-06-23T01:49:30.695Z,14.73
2018-06-23T01:51:58.842Z,13.40
2018-06-23T01:54:27.518Z,24.80
2018-06-23T01:56:55.655Z,16.63
2018-06-23T01:59:23.786Z,16.30
2018-06-23T02:01:51.924Z,16.40
2018-06-23T02:04:20.079Z,22.40
2018-06-23T02:06:48.228Z,25.20
2018-06-23T02:09:16.376Z,17.07
2018-06-23T02:11:44.522Z,12.43
2018-06-23T02:14:17.915Z,16.23
2018-06-23T02:16:51.563Z,15.83
2018-06-23T02:19:25.097Z,14.00
2018-06-23T02:21:58.724Z,12.93
2018-06-23T02:24:32.367Z,22.43
2018-06-23T02:27:06.080Z,17.47
2018-06-23T02:29:39.771Z,16.40
2018-06-23T02:32:13.339Z,11.57
2018-06-23T02:34:46.969Z,15.27
2018-06-23T02:37:15.116Z,25.40
2018-06-23T02:39:43.377Z,19.07
2018-06-23T02:42:11.523Z,15.63
2018-06-23T02:44:39.692Z,14.10
2018-06-23T02:47:07.802Z,14.90
2018-06-23T02:49:35.978Z,17.10
2018-06-23T02:52:04.091Z,11.50
2018-06-23T02:54:32.237Z,31.50
2018-06-23T02:57:00.377Z,14.07
2018-06-23T02:59:28.880Z,13.60
2018-06-23T03:01:56.970Z,11.97
2018-06-23T03:04:25.067Z,13.53
2018-06-23T03:06:53.159Z,14.80
2018-06-23T03:09:21.269Z,27.40
2018-06-23T03:11:49.416Z,13.97
2018-06-23T03:14:17.532Z,16.47
2018-06-23T03:16:45.635Z,14.43
2018-06-23T03:19:13.745Z,11.80
2018-06-23T03:21:41.895Z,15.43
2018-06-23T03:24:10.023Z,15.00
2018-06-23T03:26:38.139Z,23.57
2018-06-23T03:29:06.260Z,17.13
2018-06-23T03:31:34.369Z,20.07
2018-06-23T03:34:02.500Z,17.40
2018-06-23T03:36:30.607Z,8.13
2018-06-23T03:38:58.715Z,12.30
2018-06-23T03:41:26.788Z,19.53
2018-06-23T03:43:54.758Z,16.20
2018-06-23T03:46:22.893Z,12.30
2018-06-23T03:48:51.027Z,12.67
2018-06-23T03:51:19.119Z,14.20
2018-06-23T03:53:47.270Z,12.23
2018-06-23T03:56:15.377Z,19.30
2018-06-23T03:58:43.496Z,20.23
2018-06-23T04:01:11.619Z,11.57
2018-06-23T04:03:39.743Z,16.97
2018-06-23T04:06:07.842Z,17.63
2018-06-23T04:08:35.992Z,13.67
2018-06-23T04:11:04.384Z,21.67
2018-06-23T04:13:32.769Z,9.57
2018-06-23T04:16:01.156Z,14.77
2018-06-23T04:18:29.281Z,12.07
2018-06-23T04:20:57.412Z,17.27
2018-06-23T04:23:25.506Z,12.47
2018-06-23T04:25:53.707Z,11.47
2018-06-23T04:28:21.799Z,17.23
2018-06-23T04:30:50.013Z,12.23
2018-06-23T04:33:18.103Z,11.17
2018-06-23T04:35:46.217Z,14.20
2018-06-23T04:38:14.319Z,12.67
2018-06-23T04:40:42.449Z,14.53
2018-06-23T04:43:10.558Z,9.20
2018-06-23T04:45:38.671Z,10.97
2018-06-23T04:48:06.786Z,11.53
2018-06-23T04:50:34.947Z,16.10
2018-06-23T04:53:03.093Z,15.77
2018-06-23T04:55:31.262Z,11.77
2018-06-23T04:57:59.516Z,10.40
2018-06-23T05:00:27.675Z,17.63
2018-06-23T05:02:56.599Z,8.47
2018-06-23T05:05:25.493Z,15.17
2018-06-23T05:07:53.883Z,11.77
2018-06-23T05:10:22.024Z,14.93
2018-06-23T05:12:50.464Z,11.00
2018-06-23T05:15:18.616Z,8.17
2018-06-23T05:17:46.759Z,10.03
2018-06-23T05:20:14.994Z,11.43
2018-06-23T05:22:43.119Z,12.30
2018-06-23T05:25:11.299Z,18.77
2018-06-23T05:27:39.431Z,19.33
2018-06-23T05:30:07.561Z,17.07
2018-06-23T05:32:35.745Z,8.00
2018-06-23T05:35:03.923Z,3.93
2018-06-23T05:37:32.176Z,12.60
2018-06-23T05:40:00.639Z,12.27
2018-06-23T05:42:28.817Z,16.50
2018-06-23T05:44:56.967Z,14.03
2018-06-23T05:47:25.121Z,14.83
2018-06-23T05:49:53.354Z,14.60
2018-06-23T05:52:21.949Z,14.43
2018-06-23T05:54:50.064Z,16.40
2018-06-23T05:57:18.355Z,17.30
2018-06-23T06:02:21.108Z,13.60
2018-06-23T06:04:49.232Z,12.80
2018-06-23T06:07:17.340Z,10.00
2018-06-23T06:09:45.435Z,12.63
2018-06-23T06:12:13.533Z,14.53
2018-06-23T06:14:41.637Z,10.93
2018-06-23T06:17:27.999Z,28.97
2018-06-23T06:19:58.540Z,10.77
2018-06-23T06:22:27.869Z,11.10
2018-06-23T06:24:56.575Z,9.43
2018-06-23T06:27:24.677Z,11.70
2018-06-23T06:29:53.436Z,9.77
2018-06-23T06:32:21.943Z,19.33
2018-06-23T06:34:50.084Z,10.00
2018-06-23T06:37:18.187Z,11.93
2018-06-23T06:39:46.710Z,14.87
2018-06-23T06:42:14.981Z,15.30
2018-06-23T06:44:43.143Z,11.80
2018-06-23T06:47:12.576Z,11.67
2018-06-23T06:49:40.728Z,15.13
2018-06-23T06:52:08.864Z,8.87
2018-06-23T06:54:37.040Z,11.47
2018-06-23T06:57:05.197Z,11.90
2018-06-23T06:59:33.303Z,9.27
2018-06-23T07:02:01.427Z,16.63
2018-06-23T07:04:29.571Z,11.73
2018-06-23T07:06:57.692Z,11.17
2018-06-23T07:09:25.788Z,10.23
2018-06-23T07:11:53.873Z,13.00
2018-06-23T07:14:21.987Z,9.47
2018-06-23T07:16:50.102Z,9.77
2018-06-23T07:19:18.200Z,10.33
2018-06-23T07:21:46.312Z,15.68
2018-06-23T07:24:14.512Z,13.57
2018-06-23T07:26:42.551Z,13.43
2018-06-23T07:29:10.680Z,6.40
2018-06-23T07:31:38.821Z,11.10
2018-06-23T07:34:06.936Z,13.10
2018-06-23T07:36:35.041Z,13.93
2018-06-23T07:39:04.133Z,14.78
2018-06-23T07:41:32.300Z,12.78
2018-06-23T07:44:00.417Z,11.10
2018-06-23T07:46:28.576Z,13.30
2018-06-23T07:48:56.645Z,13.25
2018-06-23T07:51:24.732Z,21.87
2018-06-23T07:53:52.865Z,9.63
2018-06-23T07:56:21.016Z,13.45
2018-06-23T07:58:49.083Z,14.03
2018-06-23T08:01:17.171Z,11.28
2018-06-23T08:03:45.297Z,15.43
2018-06-23T08:06:13.496Z,11.12
2018-06-23T08:08:41.585Z,14.45
2018-06-23T08:11:09.701Z,10.30
2018-06-23T08:13:37.832Z,19.05
2018-06-23T08:16:06.577Z,12.82
2018-06-23T08:18:34.683Z,18.27
2018-06-23T08:21:02.784Z,12.18
2018-06-23T08:23:30.880Z,14.73
2018-06-23T08:25:58.995Z,15.40
2018-06-23T08:28:27.120Z,10.13
2018-06-23T08:30:55.215Z,8.38
2018-06-23T08:33:23.515Z,9.50
2018-06-23T08:35:51.719Z,10.30
2018-06-23T08:38:19.803Z,10.32
2018-06-23T08:40:47.898Z,9.10
2018-06-23T08:43:16.045Z,7.80
2018-06-23T08:45:44.165Z,8.08
2018-06-23T08:48:12.287Z,10.03
2018-06-23T08:50:40.438Z,10.35
2018-06-23T08:53:08.574Z,9.13
2018-06-23T08:55:36.760Z,8.23
2018-06-23T08:58:04.923Z,7.97
2018-06-23T09:00:33.068Z,8.35
2018-06-23T09:03:01.220Z,7.60
2018-06-23T09:05:29.364Z,7.45
2018-06-23T09:07:57.524Z,6.42
2018-06-23T09:10:25.672Z,9.18
2018-06-23T09:12:53.847Z,7.00
2018-06-23T09:15:22.020Z,9.53
2018-06-23T09:17:50.283Z,7.33
2018-06-23T09:20:18.439Z,5.92
2018-06-23T09:22:46.660Z,12.33
2018-06-23T09:25:14.799Z,8.65
2018-06-23T09:27:42.944Z,11.03
2018-06-23T09:30:11.075Z,5.90
2018-06-23T09:32:39.222Z,10.03
2018-06-23T09:35:07.383Z,9.48
2018-06-23T09:37:35.533Z,6.45
2018-06-23T09:40:03.668Z,7.97
2018-06-23T09:42:31.828Z,10.48
2018-06-23T09:45:00.096Z,10.58
2018-06-23T09:47:28.227Z,12.10
2018-06-23T09:49:56.415Z,11.40
2018-06-23T09:52:24.599Z,10.03
2018-06-23T09:54:52.755Z,4.60
2018-06-23T09:57:20.943Z,7.87
2018-06-23T09:59:49.078Z,4.33
2018-06-23T10:02:17.228Z,7.45
2018-06-23T10:04:45.369Z,7.75
2018-06-23T10:07:14.611Z,9.58
2018-06-23T10:09:42.727Z,9.88
2018-06-23T10:12:10.891Z,9.35
2018-06-23T10:14:39.060Z,8.10
2018-06-23T10:17:07.219Z,15.93
2018-06-23T10:19:35.371Z,7.83
2018-06-23T10:22:03.566Z,8.58
2018-06-23T10:24:31.752Z,7.85
2018-06-23T10:26:59.864Z,8.15
2018-06-23T10:29:28.095Z,6.80
2018-06-23T10:31:56.276Z,7.83
2018-06-23T10:34:24.448Z,4.17
2018-06-23T10:36:52.624Z,5.12
2018-06-23T10:39:20.761Z,14.45
2018-06-23T10:41:48.895Z,9.25
2018-06-23T10:44:17.044Z,4.22
2018-06-23T10:46:45.241Z,10.82
2018-06-23T10:49:13.412Z,7.55
2018-06-23T10:51:41.532Z,4.65
2018-06-23T10:54:09.627Z,9.18
2018-06-23T10:56:37.739Z,7.30
2018-06-23T10:59:05.931Z,4.15
2018-06-23T11:01:34.045Z,6.58
2018-06-23T11:04:02.145Z,3.25
2018-06-23T11:06:30.288Z,6.28
2018-06-23T11:08:58.446Z,6.83
2018-06-23T11:11:26.578Z,5.08
2018-06-23T11:13:54.699Z,9.53
2018-06-23T11:16:22.824Z,7.70
2018-06-23T11:18:50.954Z,10.10
2018-06-23T11:21:19.111Z,8.95
2018-06-23T11:23:47.247Z,6.15
2018-06-23T11:26:15.370Z,8.45
2018-06-23T11:28:43.507Z,7.67
2018-06-23T11:31:11.593Z,5.10
2018-06-23T11:33:39.695Z,7.67
2018-06-23T11:36:07.826Z,6.10
2018-06-23T11:38:36.024Z,6.03
2018-06-23T11:41:04.193Z,4.40
2018-06-23T11:43:32.430Z,3.58
2018-06-23T11:46:00.719Z,6.78
2018-06-23T11:48:28.867Z,10.00
2018-06-23T11:50:56.994Z,3.10
2018-06-23T11:53:25.267Z,9.40
2018-06-23T11:55:53.425Z,2.75
2018-06-23T11:58:21.573Z,5.22
2018-06-23T12:00:49.929Z,10.05
2018-06-23T12:03:18.245Z,6.28
2018-06-23T12:05:46.306Z,5.42
2018-06-23T12:08:14.409Z,1.75
2018-06-23T12:10:42.495Z,6.47
2018-06-23T12:13:10.656Z,4.00
2018-06-23T12:15:38.816Z,3.50
2018-06-23T12:18:06.898Z,4.45
2018-06-23T12:20:35.271Z,7.67
2018-06-23T12:23:03.394Z,5.03
2018-06-23T12:25:31.555Z,7.65
2018-06-23T12:27:59.678Z,8.08
2018-06-23T12:30:27.850Z,5.25
2018-06-23T12:32:55.903Z,5.12
2018-06-23T12:35:24.000Z,4.40
2018-06-23T12:37:52.086Z,3.98
2018-06-23T12:40:19.966Z,5.60
2018-06-23T12:42:48.044Z,2.67
2018-06-23T12:45:16.208Z,5.65
2018-06-23T12:47:44.362Z,7.87
2018-06-23T12:50:12.515Z,5.58
2018-06-23T12:52:40.727Z,6.53
2018-06-23T12:55:08.895Z,7.83
2018-06-23T12:57:37.169Z,7.55
2018-06-23T13:00:06.346Z,5.45
2018-06-23T13:02:34.521Z,6.00
2018-06-23T13:05:02.752Z,6.12
2018-06-23T13:07:30.960Z,3.65
2018-06-23T13:09:59.143Z,2.72
2018-06-23T13:12:27.302Z,5.17
2018-06-23T13:14:55.463Z,5.47
2018-06-23T13:17:23.631Z,4.08
2018-06-23T13:19:51.819Z,6.83
2018-06-23T13:22:19.993Z,4.10
2018-06-23T13:24:48.109Z,9.10
2018-06-23T13:27:16.227Z,3.37
2018-06-23T13:29:44.410Z,2.60
2018-06-23T13:32:12.613Z,5.53
2018-06-23T13:34:40.803Z,6.83
2018-06-23T13:37:08.994Z,5.37
2018-06-23T13:39:37.237Z,7.05
2018-06-23T13:42:05.387Z,4.65
2018-06-23T13:44:33.539Z,4.30
2018-06-23T13:47:01.723Z,3.37
2018-06-23T13:49:29.895Z,7.47
2018-06-23T13:51:58.209Z,3.87
2018-06-23T13:54:26.732Z,2.80
2018-06-23T13:56:54.880Z,10.70
2018-06-23T13:59:23.179Z,3.70
2018-06-23T14:01:51.308Z,6.45
2018-06-23T14:04:19.481Z,2.42
2018-06-23T14:06:47.655Z,4.50
2018-06-23T14:09:15.802Z,2.02
2018-06-23T14:11:43.945Z,5.03
2018-06-23T14:14:12.079Z,3.05
2018-06-23T14:16:40.224Z,3.90
2018-06-23T14:19:08.397Z,2.30
2018-06-23T14:21:36.801Z,4.00
2018-06-23T14:24:04.926Z,4.53
2018-06-23T14:26:33.054Z,3.22
2018-06-23T14:29:01.667Z,3.75
2018-06-23T14:31:29.989Z,5.78
2018-06-23T14:33:57.997Z,3.95
2018-06-23T14:36:26.140Z,3.62
2018-06-23T14:38:54.280Z,2.83
2018-06-23T14:41:22.416Z,6.67
2018-06-23T14:43:50.584Z,13.65
2018-06-23T14:46:18.743Z,1.95
2018-06-23T14:48:46.900Z,1.82
2018-06-23T14:51:15.052Z,4.25
2018-06-23T14:53:43.208Z,6.17
2018-06-23T14:56:11.384Z,3.75
2018-06-23T14:58:39.523Z,4.53
2018-06-23T15:01:07.700Z,4.30
2018-06-23T15:03:35.908Z,7.65
2018-06-23T15:06:06.095Z,4.75
2018-06-23T15:08:45.775Z,3.05
2018-06-23T15:11:25.343Z,6.45
2018-06-23T15:13:53.516Z,5.05
2018-06-23T15:16:21.736Z,4.42
2018-06-23T15:18:49.912Z,4.62
2018-06-23T15:21:18.069Z,3.30
2018-06-23T15:23:46.262Z,5.40
2018-06-23T15:26:14.480Z,5.10
2018-06-23T15:28:43.041Z,2.77
2018-06-23T15:31:11.217Z,2.77
2018-06-23T15:33:39.451Z,4.97
2018-06-23T15:36:07.561Z,6.47
2018-06-23T15:38:35.703Z,2.55
2018-06-23T15:41:05.388Z,3.90
2018-06-23T15:43:33.616Z,3.65
2018-06-23T15:46:01.988Z,2.90
2018-06-23T15:48:30.140Z,5.00
2018-06-23T15:50:58.394Z,3.60
2018-06-23T15:53:26.547Z,10.10
2018-06-23T15:55:54.722Z,4.20
2018-06-23T15:58:22.855Z,4.90
2018-06-23T16:00:51.054Z,5.37
2018-06-23T16:03:19.326Z,4.15
2018-06-23T16:05:47.489Z,3.05
2018-06-23T16:08:15.611Z,3.92
2018-06-23T16:10:43.756Z,2.40
2018-06-23T16:13:11.876Z,2.70
2018-06-23T16:15:40.016Z,5.50
2018-06-23T16:18:08.176Z,4.00
2018-06-23T16:20:36.323Z,5.20
2018-06-23T16:23:04.511Z,2.80
2018-06-23T16:25:32.607Z,5.60
2018-06-23T16:28:00.786Z,3.83
2018-06-23T16:30:28.904Z,3.22
2018-06-23T16:32:57.095Z,4.87
2018-06-23T16:35:25.640Z,4.87
2018-06-23T16:37:53.405Z,5.08
2018-06-23T16:40:21.307Z,1.55
2018-06-23T16:42:49.495Z,4.95
2018-06-23T16:45:17.629Z,4.35
2018-06-23T16:47:45.860Z,5.15
2018-06-23T16:50:14.047Z,5.53
2018-06-23T16:52:42.187Z,2.15
2018-06-23T16:55:10.348Z,3.70
2018-06-23T16:57:38.432Z,6.28
2018-06-23T17:00:06.542Z,5.15
2018-06-23T17:02:34.636Z,4.55
2018-06-23T17:05:02.756Z,2.60
2018-06-23T17:07:30.832Z,4.22
2018-06-23T17:09:58.907Z,7.72
2018-06-23T17:12:27.103Z,2.58
2018-06-23T17:14:55.027Z,4.70
2018-06-23T17:17:23.114Z,4.42
2018-06-23T17:19:51.216Z,5.97
2018-06-23T17:22:19.440Z,4.03
2018-06-23T17:24:47.512Z,2.27
2018-06-23T17:27:15.660Z,5.78
2018-06-23T17:29:43.683Z,3.00
2018-06-23T17:32:11.788Z,4.67
2018-06-23T17:34:39.893Z,2.60
2018-06-23T17:37:07.999Z,4.22
2018-06-23T17:39:36.123Z,8.43
2018-06-23T17:42:04.224Z,7.22
2018-06-23T17:44:32.369Z,6.80
2018-06-23T17:47:00.487Z,4.05
2018-06-23T17:49:28.584Z,4.70
2018-06-23T17:51:56.684Z,4.87
2018-06-23T17:54:24.768Z,5.58
2018-06-23T17:56:52.856Z,2.62
2018-06-23T17:59:20.956Z,4.45
2018-06-23T18:01:49.060Z,6.15
2018-06-23T18:04:17.189Z,7.67
2018-06-23T18:06:45.303Z,7.95
2018-06-23T18:09:13.415Z,6.50
2018-06-23T18:11:41.531Z,6.78
2018-06-23T18:14:10.069Z,5.35
2018-06-23T18:16:38.271Z,3.47
2018-06-23T18:19:06.843Z,2.92
2018-06-23T18:21:34.952Z,4.45
2018-06-23T18:24:03.048Z,5.00
2018-06-23T18:26:31.208Z,7.00
2018-06-23T18:28:59.383Z,4.25
2018-06-23T18:31:27.492Z,6.42
2018-06-23T18:33:55.591Z,6.20
2018-06-23T18:36:23.690Z,5.90
2018-06-23T18:38:51.801Z,6.25
2018-06-23T18:41:19.929Z,5.37
2018-06-23T18:43:48.023Z,2.83
2018-06-23T18:46:16.122Z,2.65
2018-06-23T18:48:44.225Z,4.40
2018-06-23T18:51:12.320Z,10.98
2018-06-23T18:53:40.430Z,3.83
2018-06-23T18:56:08.531Z,11.45
2018-06-23T18:58:36.631Z,5.10
2018-06-23T19:01:04.746Z,6.58
2018-06-23T19:03:32.865Z,3.47
2018-06-23T19:06:00.952Z,6.62
2018-06-23T19:08:29.051Z,3.80
2018-06-23T19:10:57.179Z,5.97
2018-06-23T19:13:25.287Z,6.42
2018-06-23T19:15:53.372Z,10.90
2018-06-23T19:18:21.523Z,7.00
2018-06-23T19:20:49.614Z,8.08
2018-06-23T19:23:17.702Z,3.95
2018-06-23T19:25:45.784Z,2.70
2018-06-23T19:28:13.904Z,3.45
2018-06-23T19:30:42.027Z,3.85
2018-06-23T19:33:10.139Z,5.33
2018-06-23T19:35:38.302Z,6.78
2018-06-23T19:38:06.377Z,6.20
2018-06-23T19:40:34.516Z,8.53
2018-06-23T19:43:02.643Z,5.33
2018-06-23T19:45:30.767Z,7.17
2018-06-23T19:47:58.871Z,5.62
2018-06-23T19:50:26.972Z,4.00
2018-06-23T19:52:55.063Z,3.92
2018-06-23T19:55:23.187Z,2.75
2018-06-23T19:57:51.085Z,4.83
2018-06-23T20:00:19.199Z,3.45
2018-06-23T20:02:47.287Z,2.47
2018-06-23T20:05:15.377Z,6.12
2018-06-23T20:07:43.491Z,6.47
2018-06-23T20:10:11.604Z,4.67
2018-06-23T20:12:39.739Z,3.77
2018-06-23T20:15:07.895Z,4.95
2018-06-23T20:17:35.993Z,3.58
2018-06-23T20:20:04.099Z,3.67
2018-06-23T20:22:32.220Z,4.03
2018-06-23T20:25:00.335Z,8.75
2018-06-23T20:27:28.446Z,14.53
2018-06-23T20:29:56.928Z,15.15
2018-06-23T20:32:25.020Z,3.40
2018-06-23T20:34:53.188Z,2.87
2018-06-23T20:37:21.320Z,3.95
2018-06-23T20:39:49.439Z,7.07
2018-06-23T20:42:17.528Z,5.40
2018-06-23T20:44:45.628Z,2.92
2018-06-23T20:47:13.752Z,4.30
2018-06-23T20:49:41.864Z,7.67
2018-06-23T20:52:09.960Z,3.77
2018-06-23T20:54:38.182Z,6.23
2018-06-23T20:57:06.267Z,3.50
2018-06-23T20:59:34.865Z,5.58
2018-06-23T21:02:02.955Z,4.45
2018-06-23T21:07:05.870Z,6.13
2018-06-23T21:09:34.012Z,3.57
2018-06-23T21:12:02.090Z,13.33
2018-06-23T21:14:30.220Z,9.27
2018-06-23T21:16:58.332Z,3.15
2018-06-23T21:19:26.405Z,7.37
2018-06-23T21:21:54.491Z,3.90
2018-06-23T21:24:22.583Z,5.47
2018-06-23T21:26:50.704Z,5.67
2018-06-23T21:29:18.795Z,5.43
2018-06-23T21:31:46.992Z,7.20
2018-06-23T21:34:15.103Z,4.37
2018-06-23T21:36:43.180Z,5.33
2018-06-23T21:39:11.378Z,3.33
2018-06-23T21:41:39.512Z,12.97
2018-06-23T21:44:07.855Z,5.33
2018-06-23T21:46:36.337Z,4.47
2018-06-23T21:49:04.627Z,6.93
2018-06-23T21:51:32.744Z,4.90
2018-06-23T21:54:00.847Z,3.50
2018-06-23T21:56:28.957Z,6.93
2018-06-23T21:58:57.066Z,4.43
2018-06-23T22:01:25.135Z,5.00
2018-06-23T22:03:53.232Z,6.10
2018-06-23T22:06:21.349Z,4.43
2018-06-23T22:08:49.471Z,3.80
2018-06-23T22:11:17.576Z,6.40
2018-06-23T22:13:45.691Z,7.57
2018-06-23T22:16:13.776Z,5.13
2018-06-23T22:18:41.868Z,11.20
2018-06-23T22:21:09.956Z,5.10
2018-06-23T22:23:38.092Z,2.47
2018-06-23T22:26:06.195Z,3.77
2018-06-23T22:28:34.315Z,5.53
2018-06-23T22:31:02.412Z,5.57
2018-06-23T22:33:30.548Z,10.97
2018-06-23T22:35:58.636Z,4.17
2018-06-23T22:38:26.807Z,3.70
2018-06-23T22:40:54.933Z,13.53
2018-06-23T22:43:23.040Z,4.80
2018-06-23T22:45:51.133Z,5.23
2018-06-23T22:48:19.212Z,6.10
2018-06-23T22:50:48.177Z,3.27
2018-06-23T22:53:16.311Z,5.63
2018-06-23T22:55:44.560Z,5.33
2018-06-23T22:58:12.764Z,9.27
2018-06-23T23:00:40.926Z,5.30
2018-06-23T23:03:09.065Z,3.93
2018-06-23T23:05:37.225Z,7.60
2018-06-23T23:08:05.455Z,5.50
2018-06-23T23:10:33.588Z,4.30
2018-06-23T23:13:01.740Z,8.00
2018-06-23T23:15:29.873Z,3.97
2018-06-23T23:17:57.996Z,5.30
2018-06-23T23:20:26.168Z,5.33
2018-06-23T23:22:54.318Z,2.93
2018-06-23T23:25:22.473Z,6.10
2018-06-23T23:27:50.698Z,2.70
2018-06-23T23:30:18.879Z,4.47
2018-06-23T23:32:47.023Z,10.60
2018-06-23T23:35:15.182Z,5.30
2018-06-23T23:37:43.308Z,6.70
2018-06-23T23:40:11.443Z,8.90
2018-06-23T23:42:39.629Z,7.57
2018-06-23T23:45:07.767Z,2.93
2018-06-23T23:47:35.928Z,7.53
2018-06-23T23:50:04.427Z,7.80
2018-06-23T23:52:32.577Z,8.33
2018-06-23T23:55:00.691Z,6.50
2018-06-23T23:57:28.788Z,4.03
2018-06-23T23:59:56.933Z,5.57
